Terminal Aerodrome Forecast
Issued by NWS

Home | Current Version | Previous Version | Text Only | Print | Product List | Glossary On
Versions: 1 2 3 4 5 6 7 8 9 10 11 12 13
000
FTAK31 PAFA 231735
TAFAGA
TAF
PAGA 231735Z 2318/2418 VRB04KT P6SM BKN025 OVC035
     FM232100 VRB04KT P6SM SCT025 BKN035 OVC050
     FM240300 VRB04KT P6SM VCSH SCT015 BKN025 OVC035=

USA.gov is the U.S. government's official web portal to all federal, state and local government web resources and services.